Time;durP1;ratioP1;P1;durP2;ratioP2;P2;SDS_P1;SDS_P2;PMS_P1;PMS_P2;Temp;Humidity;BMP_temperature;BMP_pressure;BME280_temperature;BME280_humidity;BME280_pressure;Samples;Min_cycle;Max_cycle;Signal;HPM_P1;HPM_P2
2022/09/19 00:01:56;;;;;;;;;;;;;;;8.58;100.00;101817.81;5113808;28;19919;-34
2022/09/19 00:04:22;;;;;;;;;;;;;;;8.57;100.00;101818.84;5115392;27;19912;-34
2022/09/19 00:06:48;;;;;;;;;;;;;;;8.54;99.56;101817.41;5115154;28;19931;-34
2022/09/19 00:09:15;;;;;;;;;;;;;;;8.52;99.57;101809.47;5114899;28;19969;-34
2022/09/19 00:11:41;;;;;;;;;;;;;;;8.51;99.93;101817.78;5115564;28;19923;-34
2022/09/19 00:14:07;;;;;;;;;;;;;;;8.48;100.00;101816.28;5114807;28;19919;-34
2022/09/19 00:16:35;;;;;;;;;;;;;;;8.47;100.00;101814.63;5114593;28;19911;-34
2022/09/19 00:19:01;;;;;;;;;;;;;;;8.47;100.00;101816.47;5115043;28;19956;-34
2022/09/19 00:21:28;;;;;;;;;;;;;;;8.45;100.00;101811.28;5114328;28;19912;-34
2022/09/19 00:26:39;;;;;;;;;;;;;;;8.43;100.00;101815.19;5115050;28;19918;-34
2022/09/19 00:29:04;;;;;;;;;;;;;;;8.40;99.81;101815.59;5114601;28;19911;-34
2022/09/19 00:31:30;;;;;;;;;;;;;;;8.39;99.63;101816.59;5114782;28;19911;-34
2022/09/19 00:33:55;;;;;;;;;;;;;;;8.37;99.77;101824.91;5115005;28;20355;-34
2022/09/19 00:36:21;;;;;;;;;;;;;;;8.36;99.80;101816.97;5114924;28;19912;-34
2022/09/19 00:38:46;;;;;;;;;;;;;;;8.36;99.90;101828.63;5114874;28;19912;-34
2022/09/19 00:41:16;;;;;;;;;;;;;;;8.35;99.70;101818.84;5114298;28;19912;-34
2022/09/19 00:43:51;;;;;;;;;;;;;;;8.37;100.00;101827.59;5114898;28;19911;-34
2022/09/19 00:46:17;;;;;;;;;;;;;;;8.38;100.00;101828.41;5114190;28;19912;-34
2022/09/19 00:48:45;;;;;;;;;;;;;;;8.37;99.98;101824.91;5113984;28;19911;-34
2022/09/19 00:51:12;;;;;;;;;;;;;;;8.40;99.80;101824.53;5114456;28;19912;-34
2022/09/19 00:53:37;;;;;;;;;;;;;;;8.38;99.89;101815.78;5114137;28;19912;-34
2022/09/19 00:56:03;;;;;;;;;;;;;;;8.36;100.00;101825.06;5114331;28;19911;-34
2022/09/19 00:58:30;;;;;;;;;;;;;;;8.33;99.60;101820.88;5113974;28;20014;-34
2022/09/19 01:00:57;;;;;;;;;;;;;;;8.30;99.79;101828.53;5113972;28;19916;-34
2022/09/19 01:03:24;;;;;;;;;;;;;;;8.27;99.78;101829.75;5114918;28;20086;-34
2022/09/19 01:06:02;;;;;;;;;;;;;;;8.24;100.00;101830.09;5114070;28;20326;-35
2022/09/19 01:08:46;;;;;;;;;;;;;;;8.19;100.00;101838.75;5114323;28;19934;-34
2022/09/19 01:11:11;;;;;;;;;;;;;;;8.16;100.00;101832.94;5113589;28;19916;-34
2022/09/19 01:13:43;;;;;;;;;;;;;;;8.15;99.86;101837.50;5114612;28;19918;-34
2022/09/19 01:16:20;;;;;;;;;;;;;;;8.14;100.00;101843.06;5114152;28;19947;-34
2022/09/19 01:19:02;;;;;;;;;;;;;;;8.14;100.00;101848.44;5113439;28;19960;-34
2022/09/19 01:21:38;;;;;;;;;;;;;;;8.15;99.82;101842.88;5113815;28;19918;-34
2022/09/19 01:24:06;;;;;;;;;;;;;;;8.15;100.00;101831.25;5114480;28;19939;-34
2022/09/19 01:26:44;;;;;;;;;;;;;;;8.14;99.70;101849.28;5114064;28;19946;-34
2022/09/19 01:29:16;;;;;;;;;;;;;;;8.16;100.00;101846.41;5120612;28;19924;-34
2022/09/19 01:31:43;;;;;;;;;;;;;;;8.19;100.00;101848.72;5120805;27;20328;-34
2022/09/19 01:34:12;;;;;;;;;;;;;;;8.23;100.00;101855.38;5120485;27;19911;-34
2022/09/19 01:37:02;;;;;;;;;;;;;;;8.30;100.00;101855.47;5120630;27;19980;-34
2022/09/19 01:39:29;;;;;;;;;;;;;;;8.33;99.72;101849.69;5121045;27;19934;-34
2022/09/19 01:41:57;;;;;;;;;;;;;;;8.34;100.00;101852.19;5120867;27;19919;-34
2022/09/19 01:44:23;;;;;;;;;;;;;;;8.36;99.96;101852.00;5120889;27;20407;-34
2022/09/19 01:46:58;;;;;;;;;;;;;;;8.39;100.00;101848.94;5120459;27;20299;-34
2022/09/19 01:49:26;;;;;;;;;;;;;;;8.44;100.00;101850.06;5120121;28;19919;-34
2022/09/19 01:51:57;;;;;;;;;;;;;;;8.47;100.00;101857.75;5120941;28;20271;-34
2022/09/19 01:54:25;;;;;;;;;;;;;;;8.52;100.00;101849.91;5120116;27;20373;-34
2022/09/19 01:56:56;;;;;;;;;;;;;;;8.58;100.00;101853.69;5120806;28;19918;-34
2022/09/19 01:59:37;;;;;;;;;;;;;;;8.60;100.00;101840.88;5120190;27;20006;-34
2022/09/19 02:02:25;;;;;;;;;;;;;;;8.62;100.00;101849.59;5120041;28;19911;-33
2022/09/19 02:05:19;;;;;;;;;;;;;;;8.58;99.84;101855.56;5109344;28;19957;-35
2022/09/19 02:08:00;;;;;;;;;;;;;;;8.51;99.90;101856.34;5117570;28;19911;-35
2022/09/19 02:10:32;;;;;;;;;;;;;;;8.49;100.00;101850.31;5120305;27;19916;-35
2022/09/19 02:12:59;;;;;;;;;;;;;;;8.48;100.00;101854.03;5119904;27;19916;-35
2022/09/19 02:15:28;;;;;;;;;;;;;;;8.47;99.95;101867.69;5120176;27;19916;-35
2022/09/19 02:17:55;;;;;;;;;;;;;;;8.43;99.93;101858.31;5120403;27;19912;-35
2022/09/19 02:20:27;;;;;;;;;;;;;;;8.38;99.92;101858.91;5119932;27;19919;-35
2022/09/19 02:22:56;;;;;;;;;;;;;;;8.35;99.90;101861.13;5120840;27;19911;-35
2022/09/19 02:25:24;;;;;;;;;;;;;;;8.33;99.97;101852.38;5120007;27;19911;-35
2022/09/19 02:27:51;;;;;;;;;;;;;;;8.30;100.00;101867.09;5120074;27;19911;-35
2022/09/19 02:30:20;;;;;;;;;;;;;;;8.27;100.00;101868.28;5120298;27;19968;-35
2022/09/19 02:32:49;;;;;;;;;;;;;;;8.26;100.00;101871.19;5120243;27;19922;-35
2022/09/19 02:35:15;;;;;;;;;;;;;;;8.28;100.00;101874.50;5119876;27;19915;-34
2022/09/19 02:37:46;;;;;;;;;;;;;;;8.26;100.00;101874.72;5120504;27;19934;-34
2022/09/19 02:40:31;;;;;;;;;;;;;;;8.22;100.00;101875.28;5116760;27;19931;-34
2022/09/19 02:43:36;;;;;;;;;;;;;;;8.18;100.00;101876.69;5117067;28;20364;-34
2022/09/19 02:46:16;;;;;;;;;;;;;;;8.15;100.00;101874.34;5034266;28;19913;-35
2022/09/19 02:48:49;;;;;;;;;;;;;;;8.13;100.00;101876.41;5033637;28;19964;-35
2022/09/19 02:51:26;;;;;;;;;;;;;;;8.11;100.00;101871.22;5033614;28;19913;-35
2022/09/19 02:53:56;;;;;;;;;;;;;;;8.09;100.00;101872.44;5034005;28;20346;-35
2022/09/19 02:56:27;;;;;;;;;;;;;;;8.06;100.00;101881.75;5033332;28;19913;-35
2022/09/19 02:58:58;;;;;;;;;;;;;;;8.06;100.00;101880.91;5033315;28;20401;-35
2022/09/19 03:01:26;;;;;;;;;;;;;;;8.05;100.00;101879.22;5033369;28;19913;-34
2022/09/19 03:04:11;;;;;;;;;;;;;;;8.04;100.00;101878.38;5033854;28;19913;-34
2022/09/19 03:06:38;;;;;;;;;;;;;;;8.04;100.00;101886.47;5033579;28;19913;-34
2022/09/19 03:09:06;;;;;;;;;;;;;;;8.01;100.00;101878.78;5033517;28;20008;-34
2022/09/19 03:11:33;;;;;;;;;;;;;;;8.00;99.92;101883.34;5033210;28;19924;-34
2022/09/19 03:13:59;;;;;;;;;;;;;;;7.98;100.00;101885.38;5033146;28;19917;-34
2022/09/19 03:16:34;;;;;;;;;;;;;;;7.97;100.00;101888.25;5062966;28;20314;-34
2022/09/19 03:18:59;;;;;;;;;;;;;;;7.96;100.00;101890.13;5115539;28;20359;-34
2022/09/19 03:21:25;;;;;;;;;;;;;;;7.94;100.00;101883.25;5115844;28;19955;-35
2022/09/19 03:23:52;;;;;;;;;;;;;;;7.92;100.00;101880.75;5115878;28;19912;-35
2022/09/19 03:26:25;;;;;;;;;;;;;;;7.91;100.00;101884.47;5115813;28;20002;-35
2022/09/19 03:28:50;;;;;;;;;;;;;;;7.88;100.00;101889.38;5115769;28;19915;-35
2022/09/19 03:31:16;;;;;;;;;;;;;;;7.85;100.00;101885.19;5115384;28;19912;-35
2022/09/19 03:33:42;;;;;;;;;;;;;;;7.85;100.00;101884.34;5116050;28;20047;-35
2022/09/19 03:36:08;;;;;;;;;;;;;;;7.86;100.00;101881.50;5115617;28;20418;-35
2022/09/19 03:38:37;;;;;;;;;;;;;;;7.89;100.00;101881.09;5115585;28;19911;-35
2022/09/19 03:41:02;;;;;;;;;;;;;;;7.91;100.00;101881.78;5115563;28;19934;-35
2022/09/19 03:43:29;;;;;;;;;;;;;;;7.91;100.00;101878.25;5115518;28;19915;-35
2022/09/19 03:45:55;;;;;;;;;;;;;;;7.93;100.00;101882.41;5115064;28;20351;-35
2022/09/19 03:48:20;;;;;;;;;;;;;;;7.91;100.00;101886.31;5115833;28;20006;-35
2022/09/19 03:50:46;;;;;;;;;;;;;;;7.92;100.00;101886.13;5115239;28;20011;-35
2022/09/19 03:53:11;;;;;;;;;;;;;;;7.96;100.00;101886.59;5115517;28;19958;-35
2022/09/19 03:55:43;;;;;;;;;;;;;;;7.96;100.00;101892.81;5115168;28;19958;-35
2022/09/19 03:58:10;;;;;;;;;;;;;;;7.97;100.00;101891.78;5115489;27;19951;-35
2022/09/19 04:00:35;;;;;;;;;;;;;;;7.94;100.00;101889.44;5114975;28;20431;-35
2022/09/19 04:03:01;;;;;;;;;;;;;;;7.91;100.00;101887.16;5115382;28;19951;-35
2022/09/19 04:05:26;;;;;;;;;;;;;;;7.88;100.00;101895.59;5114713;28;19998;-35
2022/09/19 04:07:51;;;;;;;;;;;;;;;7.84;100.00;101894.31;5114779;28;20428;-35
2022/09/19 04:10:16;;;;;;;;;;;;;;;7.81;100.00;101897.38;5114384;28;19937;-35
2022/09/19 04:12:42;;;;;;;;;;;;;;;7.82;100.00;101895.53;5114904;28;19919;-35
2022/09/19 04:15:07;;;;;;;;;;;;;;;7.82;100.00;101901.75;5114829;28;19912;-35
2022/09/19 04:17:32;;;;;;;;;;;;;;;7.82;100.00;101901.75;5115188;27;19912;-35
2022/09/19 04:19:57;;;;;;;;;;;;;;;7.84;100.00;101913.16;5114802;28;19911;-35
2022/09/19 04:22:23;;;;;;;;;;;;;;;7.81;100.00;101910.84;5114402;28;19977;-35
2022/09/19 04:24:49;;;;;;;;;;;;;;;7.79;100.00;101907.50;5114641;28;19911;-35
2022/09/19 04:27:14;;;;;;;;;;;;;;;7.78;100.00;101911.22;5114683;28;19923;-35
2022/09/19 04:29:40;;;;;;;;;;;;;;;7.76;100.00;101907.88;5114203;28;19911;-35
2022/09/19 04:32:06;;;;;;;;;;;;;;;7.79;100.00;101912.03;5114771;28;19918;-35
2022/09/19 04:34:31;;;;;;;;;;;;;;;7.77;100.00;101909.53;5114444;28;19912;-35
2022/09/19 04:36:57;;;;;;;;;;;;;;;7.73;100.00;101913.63;5114619;28;19911;-35
2022/09/19 04:39:23;;;;;;;;;;;;;;;7.68;100.00;101910.66;5114536;28;19957;-35
2022/09/19 04:41:52;;;;;;;;;;;;;;;7.67;100.00;101914.38;5114080;28;20352;-35
2022/09/19 04:44:17;;;;;;;;;;;;;;;7.66;100.00;101920.75;5114343;27;20320;-35
2022/09/19 04:46:44;;;;;;;;;;;;;;;7.66;100.00;101918.06;5114458;28;19911;-35
2022/09/19 04:49:11;;;;;;;;;;;;;;;7.68;100.00;101927.66;5114874;28;19911;-35
2022/09/19 04:51:36;;;;;;;;;;;;;;;7.67;100.00;101919.75;5114403;28;19947;-35
2022/09/19 04:54:02;;;;;;;;;;;;;;;7.60;100.00;101935.81;5114484;28;20287;-35
2022/09/19 04:56:27;;;;;;;;;;;;;;;7.56;100.00;101934.50;5114938;28;19916;-35
2022/09/19 04:58:52;;;;;;;;;;;;;;;7.60;100.00;101934.97;5113980;28;19915;-35
2022/09/19 05:01:18;;;;;;;;;;;;;;;7.57;100.00;101932.66;5113979;28;20023;-35
2022/09/19 05:03:43;;;;;;;;;;;;;;;7.62;100.00;101930.25;5113565;28;19918;-35
2022/09/19 05:06:09;;;;;;;;;;;;;;;7.64;100.00;101933.59;5112290;28;19912;-35
2022/09/19 05:08:34;;;;;;;;;;;;;;;7.64;100.00;101934.41;5113982;28;19927;-35
2022/09/19 05:11:01;;;;;;;;;;;;;;;7.64;100.00;101938.97;5114111;28;20027;-35
2022/09/19 05:13:30;;;;;;;;;;;;;;;7.69;100.00;101940.09;5114009;28;19927;-35
2022/09/19 05:15:56;;;;;;;;;;;;;;;7.77;100.00;101941.84;5113450;28;20405;-35
2022/09/19 05:18:22;;;;;;;;;;;;;;;7.82;100.00;101939.44;5113878;28;19911;-35
2022/09/19 05:20:54;;;;;;;;;;;;;;;7.82;100.00;101934.06;5113913;28;19918;-35
2022/09/19 05:23:20;;;;;;;;;;;;;;;7.83;100.00;101941.09;5113699;28;20342;-35
2022/09/19 05:25:45;;;;;;;;;;;;;;;7.85;100.00;101939.03;5113414;28;20003;-35
2022/09/19 05:28:11;;;;;;;;;;;;;;;7.89;100.00;101937.66;5113756;28;20313;-35
2022/09/19 05:30:37;;;;;;;;;;;;;;;7.93;100.00;101940.81;5113290;28;20398;-35
2022/09/19 05:33:02;;;;;;;;;;;;;;;7.98;100.00;101954.56;5114408;28;19911;-35
2022/09/19 05:35:28;;;;;;;;;;;;;;;8.02;100.00;101955.88;5113780;28;19964;-35
2022/09/19 05:37:53;;;;;;;;;;;;;;;8.06;100.00;101950.94;5113354;28;19919;-35
2022/09/19 05:40:19;;;;;;;;;;;;;;;8.05;100.00;101954.63;5113194;28;20281;-35
2022/09/19 05:42:46;;;;;;;;;;;;;;;8.03;100.00;101962.91;5113631;28;19960;-35
2022/09/19 05:45:12;;;;;;;;;;;;;;;8.06;100.00;101950.94;5113976;28;19963;-35
2022/09/19 05:47:39;;;;;;;;;;;;;;;8.08;100.00;101962.38;5114203;28;20403;-35
2022/09/19 05:50:04;;;;;;;;;;;;;;;8.07;100.00;101963.38;5113105;28;20006;-35
2022/09/19 05:55:13;;;;;;;;;;;;;;;8.13;100.00;101968.03;5113217;28;19918;-35
2022/09/19 05:57:38;;;;;;;;;;;;;;;8.17;100.00;101963.94;5113315;28;19987;-35
2022/09/19 06:00:05;;;;;;;;;;;;;;;8.19;100.00;101970.78;5113290;28;19916;-35
2022/09/19 06:02:31;;;;;;;;;;;;;;;8.21;100.00;101970.63;5114063;28;20286;-35
2022/09/19 06:04:57;;;;;;;;;;;;;;;8.26;100.00;101984.38;5113273;28;19943;-35
2022/09/19 06:07:23;;;;;;;;;;;;;;;8.32;100.00;101982.78;5113511;28;19971;-35
2022/09/19 06:09:52;;;;;;;;;;;;;;;8.36;100.00;101984.06;5113446;28;19935;-35
2022/09/19 06:12:17;;;;;;;;;;;;;;;8.40;100.00;101983.53;5113561;28;19973;-35
2022/09/19 06:14:43;;;;;;;;;;;;;;;8.44;100.00;101982.16;5115793;28;19912;-35
2022/09/19 06:17:08;;;;;;;;;;;;;;;8.46;100.00;101988.16;5117379;28;19912;-35
2022/09/19 06:19:33;;;;;;;;;;;;;;;8.54;100.00;101984.53;5116921;28;19911;-35
2022/09/19 06:21:58;;;;;;;;;;;;;;;8.64;100.00;101982.38;5115962;28;20267;-35
2022/09/19 06:24:24;;;;;;;;;;;;;;;8.72;100.00;101984.94;5116979;28;19931;-35
2022/09/19 06:26:53;;;;;;;;;;;;;;;8.81;100.00;101980.25;5117275;28;19923;-35
2022/09/19 06:29:18;;;;;;;;;;;;;;;8.86;100.00;101985.91;5116813;28;19912;-35
2022/09/19 06:31:44;;;;;;;;;;;;;;;8.90;100.00;101991.78;5116543;28;19967;-35
2022/09/19 06:34:10;;;;;;;;;;;;;;;8.92;100.00;101987.00;5117303;28;20006;-35
2022/09/19 06:36:35;;;;;;;;;;;;;;;8.94;100.00;101990.38;5115799;28;20351;-35
2022/09/19 06:39:00;;;;;;;;;;;;;;;8.96;100.00;101994.53;5116907;28;20077;-35
2022/09/19 06:41:26;;;;;;;;;;;;;;;9.00;100.00;101987.72;5116407;28;19959;-35
2022/09/19 06:43:51;;;;;;;;;;;;;;;9.05;100.00;101991.72;5116676;28;19911;-35
2022/09/19 06:46:17;;;;;;;;;;;;;;;9.09;100.00;101995.69;5116673;28;20335;-35
2022/09/19 06:48:43;;;;;;;;;;;;;;;9.12;100.00;102001.53;5117063;28;19954;-34
2022/09/19 06:51:08;;;;;;;;;;;;;;;9.15;100.00;102001.16;5116740;28;19955;-34
2022/09/19 06:53:33;;;;;;;;;;;;;;;9.20;100.00;102000.56;5116800;28;20323;-34
2022/09/19 06:55:59;;;;;;;;;;;;;;;9.21;100.00;101994.97;5117283;28;20006;-34
2022/09/19 06:58:26;;;;;;;;;;;;;;;9.36;100.00;102008.38;5116416;28;19968;-34
2022/09/19 07:00:51;;;;;;;;;;;;;;;9.44;100.00;102018.22;5116301;28;19911;-34
2022/09/19 07:03:17;;;;;;;;;;;;;;;9.55;100.00;102020.38;5116854;28;19915;-34
2022/09/19 07:05:43;;;;;;;;;;;;;;;9.69;100.00;102022.16;5116149;28;19911;-34
2022/09/19 07:08:09;;;;;;;;;;;;;;;9.82;100.00;102031.41;5116601;28;19949;-34
2022/09/19 07:10:36;;;;;;;;;;;;;;;9.92;100.00;102029.19;5116454;27;19930;-35
2022/09/19 07:13:02;;;;;;;;;;;;;;;10.00;100.00;102029.00;5115801;28;19919;-34
2022/09/19 07:15:31;;;;;;;;;;;;;;;10.04;100.00;102033.81;5115734;28;20008;-35
2022/09/19 07:17:56;;;;;;;;;;;;;;;10.07;100.00;102036.13;5116573;28;19919;-34
2022/09/19 07:20:23;;;;;;;;;;;;;;;10.11;100.00;102038.47;5116205;28;19920;-34
2022/09/19 07:22:58;;;;;;;;;;;;;;;10.16;100.00;102034.13;5116520;28;19912;-34
2022/09/19 07:25:24;;;;;;;;;;;;;;;10.24;100.00;102033.13;5115443;28;19918;-34
2022/09/19 07:27:53;;;;;;;;;;;;;;;10.31;100.00;102039.44;5116554;28;19912;-35
2022/09/19 07:30:18;;;;;;;;;;;;;;;10.37;100.00;102040.50;5116010;28;19912;-34
2022/09/19 07:32:43;;;;;;;;;;;;;;;10.43;100.00;102039.69;5116232;28;20266;-34
2022/09/19 07:35:08;;;;;;;;;;;;;;;10.49;100.00;102038.88;5115306;28;19918;-35
2022/09/19 07:37:34;;;;;;;;;;;;;;;10.56;100.00;102040.59;5116019;28;19916;-35
2022/09/19 07:39:59;;;;;;;;;;;;;;;10.65;100.00;102040.41;5115955;28;19960;-35
2022/09/19 07:42:24;;;;;;;;;;;;;;;10.72;100.00;102039.38;5115157;28;19988;-35
2022/09/19 07:44:49;;;;;;;;;;;;;;;10.80;100.00;102039.22;5115785;28;19911;-35
2022/09/19 07:47:26;;;;;;;;;;;;;;;10.87;100.00;102046.50;5115421;28;19911;-35
2022/09/19 07:49:54;;;;;;;;;;;;;;;10.94;100.00;102045.50;5116187;28;19911;-35
2022/09/19 07:52:19;;;;;;;;;;;;;;;11.02;100.00;102058.00;5115900;28;19919;-35
2022/09/19 07:54:44;;;;;;;;;;;;;;;11.12;100.00;102050.31;5115769;28;20352;-35
2022/09/19 07:57:10;;;;;;;;;;;;;;;11.19;100.00;102056.59;5115550;28;19934;-36
2022/09/19 07:59:35;;;;;;;;;;;;;;;11.21;100.00;102057.22;5115632;28;20266;-35
2022/09/19 08:02:00;;;;;;;;;;;;;;;11.24;100.00;102056.81;5114913;28;20378;-35
2022/09/19 08:04:26;;;;;;;;;;;;;;;11.25;100.00;102060.34;5115065;28;19912;-35
2022/09/19 08:06:51;;;;;;;;;;;;;;;11.28;100.00;102068.91;5115175;27;20015;-35
2022/09/19 08:09:17;;;;;;;;;;;;;;;11.32;100.00;102063.88;5114685;28;19947;-35
2022/09/19 08:11:42;;;;;;;;;;;;;;;11.33;100.00;102063.69;5115284;28;20002;-35
2022/09/19 08:14:07;;;;;;;;;;;;;;;11.37;100.00;102074.09;5114967;28;19955;-35
2022/09/19 08:16:32;;;;;;;;;;;;;;;11.41;100.00;102068.06;5114893;28;20375;-35
2022/09/19 08:18:58;;;;;;;;;;;;;;;11.56;100.00;102068.69;5114520;28;19911;-35
2022/09/19 08:21:24;;;;;;;;;;;;;;;11.72;100.00;102069.34;5113093;28;20290;-35
2022/09/19 08:23:49;;;;;;;;;;;;;;;11.82;100.00;102070.63;5115033;28;19912;-35
2022/09/19 08:26:14;;;;;;;;;;;;;;;11.87;100.00;102072.72;5114660;28;20421;-35
2022/09/19 08:28:39;;;;;;;;;;;;;;;11.94;100.00;102080.81;5114984;28;20419;-35
2022/09/19 08:31:05;;;;;;;;;;;;;;;11.97;100.00;102083.97;5114497;28;19919;-34
2022/09/19 08:33:30;;;;;;;;;;;;;;;12.01;100.00;102085.22;5114250;28;19912;-34
2022/09/19 08:35:59;;;;;;;;;;;;;;;12.06;100.00;102081.88;5114324;28;20280;-35
2022/09/19 08:38:24;;;;;;;;;;;;;;;12.09;100.00;102090.41;5115141;28;19915;-34
2022/09/19 08:40:59;;;;;;;;;;;;;;;12.18;100.00;102090.19;5114049;28;20007;-34
2022/09/19 08:43:24;;;;;;;;;;;;;;;12.36;100.00;102090.38;5114507;28;19965;-35
2022/09/19 08:46:06;;;;;;;;;;;;;;;12.51;100.00;102090.94;5114264;28;19915;-34
2022/09/19 08:48:44;;;;;;;;;;;;;;;12.70;100.00;102091.09;5115019;28;19912;-34
2022/09/19 08:51:20;;;;;;;;;;;;;;;12.83;100.00;102091.88;5114215;28;19912;-34
2022/09/19 08:53:48;;;;;;;;;;;;;;;12.96;100.00;102088.25;5114502;28;19912;-34
2022/09/19 08:56:14;;;;;;;;;;;;;;;13.05;100.00;102078.81;5114470;28;19968;-34
2022/09/19 08:58:46;;;;;;;;;;;;;;;13.17;99.36;102088.97;5114615;28;19912;-34
2022/09/19 09:01:12;;;;;;;;;;;;;;;13.29;99.39;102087.28;5114387;28;20313;-34
2022/09/19 09:03:42;;;;;;;;;;;;;;;13.38;98.68;102083.25;5114044;28;19912;-34
2022/09/19 09:06:33;;;;;;;;;;;;;;;13.53;98.05;102081.03;5113984;28;19919;-34
2022/09/19 09:09:17;;;;;;;;;;;;;;;13.64;96.66;102079.50;5114014;28;19956;-34
2022/09/19 09:11:51;;;;;;;;;;;;;;;13.73;94.33;102086.31;5114307;28;19959;-34
2022/09/19 09:14:26;;;;;;;;;;;;;;;13.88;94.17;102080.53;5114189;28;19912;-34
2022/09/19 09:17:08;;;;;;;;;;;;;;;13.96;93.17;102087.56;5114410;28;20002;-34
2022/09/19 09:19:43;;;;;;;;;;;;;;;13.95;92.28;102081.31;5113759;28;19911;-34
2022/09/19 09:22:25;;;;;;;;;;;;;;;14.05;94.30;102080.78;5114289;28;19918;-35
2022/09/19 09:25:09;;;;;;;;;;;;;;;14.17;93.25;102085.28;5113489;28;19911;-35
2022/09/19 09:27:50;;;;;;;;;;;;;;;14.30;91.12;102075.31;5114659;28;19934;-35
2022/09/19 09:30:17;;;;;;;;;;;;;;;14.37;88.02;102067.91;5113908;28;19923;-35
2022/09/19 09:32:45;;;;;;;;;;;;;;;14.48;87.53;102066.34;5114618;28;19912;-35
2022/09/19 09:35:26;;;;;;;;;;;;;;;14.57;84.91;102067.72;5113749;28;20052;-35
2022/09/19 09:37:59;;;;;;;;;;;;;;;14.75;84.78;102066.88;5113508;28;20345;-35
2022/09/19 09:43:23;;;;;;;;;;;;;;;15.12;85.47;102067.59;5114281;28;19934;-35
2022/09/19 09:45:50;;;;;;;;;;;;;;;15.27;83.41;102067.19;5113690;28;19923;-35
2022/09/19 09:48:21;;;;;;;;;;;;;;;15.26;82.66;102071.81;5114216;28;19964;-35
2022/09/19 09:50:53;;;;;;;;;;;;;;;15.23;84.43;102069.56;5117750;28;20371;-35
2022/09/19 09:53:18;;;;;;;;;;;;;;;15.32;83.29;102067.31;5118004;28;19911;-34
2022/09/19 09:58:31;;;;;;;;;;;;;;;15.15;77.97;102080.78;5117943;28;19918;-35
2022/09/19 10:04:02;;;;;;;;;;;;;;;14.84;81.17;102095.47;5118044;28;19919;-34
2022/09/19 10:06:34;;;;;;;;;;;;;;;14.72;82.98;102089.09;5117768;28;19912;-34
2022/09/19 10:09:18;;;;;;;;;;;;;;;14.67;82.07;102089.78;5117731;28;19915;-34
2022/09/19 10:11:44;;;;;;;;;;;;;;;14.73;84.24;102083.41;5117168;28;19916;-34
2022/09/19 10:14:20;;;;;;;;;;;;;;;14.91;79.96;102093.47;5117285;28;19911;-34
2022/09/19 10:16:52;;;;;;;;;;;;;;;14.88;80.39;102091.19;5117013;28;19916;-34
2022/09/19 10:19:33;;;;;;;;;;;;;;;14.74;81.26;102089.69;5117903;28;20419;-34
2022/09/19 10:21:59;;;;;;;;;;;;;;;14.59;81.62;102103.69;5117249;28;19992;-34
2022/09/19 10:24:40;;;;;;;;;;;;;;;14.50;82.15;102105.91;5117530;28;19919;-34
2022/09/19 10:27:38;;;;;;;;;;;;;;;14.40;80.03;102111.00;5117739;28;20339;-34
2022/09/19 10:30:19;;;;;;;;;;;;;;;14.33;81.30;102115.69;5034363;28;20028;-34
2022/09/19 10:32:45;;;;;;;;;;;;;;;14.32;81.91;102111.28;5034396;28;19963;-34
2022/09/19 10:35:27;;;;;;;;;;;;;;;14.34;82.72;102109.16;5034300;28;19920;-34
2022/09/19 10:37:54;;;;;;;;;;;;;;;14.31;82.10;102112.38;5034540;28;19935;-34
2022/09/19 10:40:19;;;;;;;;;;;;;;;14.29;81.39;102103.56;5034370;28;19913;-34
2022/09/19 10:42:47;;;;;;;;;;;;;;;14.31;81.67;102102.31;5034295;28;20325;-34
2022/09/19 10:45:18;;;;;;;;;;;;;;;14.38;82.11;102102.22;5033862;28;20265;-34
2022/09/19 10:47:43;;;;;;;;;;;;;;;14.46;81.66;102103.84;5034134;28;20399;-34
2022/09/19 10:50:14;;;;;;;;;;;;;;;14.51;80.08;102102.13;5033769;28;19913;-34
2022/09/19 10:52:40;;;;;;;;;;;;;;;14.56;79.34;102096.81;5033900;28;19920;-34
2022/09/19 10:55:09;;;;;;;;;;;;;;;14.73;80.28;102096.19;5034136;28;19913;-34
2022/09/19 10:57:45;;;;;;;;;;;;;;;15.00;80.08;102099.44;5033890;28;19913;-36
2022/09/19 11:00:30;;;;;;;;;;;;;;;15.11;80.32;102096.75;5016096;28;19964;-34
2022/09/19 11:02:57;;;;;;;;;;;;;;;15.23;77.64;102094.09;5033762;28;19917;-34
2022/09/19 11:05:24;;;;;;;;;;;;;;;15.31;77.90;102101.09;5039883;28;20000;-34
2022/09/19 11:07:54;;;;;;;;;;;;;;;15.36;75.42;102098.50;5116403;28;19918;-35
2022/09/19 11:10:37;;;;;;;;;;;;;;;15.37;78.26;102091.97;5116174;28;19916;-34
2022/09/19 11:13:07;;;;;;;;;;;;;;;15.39;76.96;102085.25;5115932;28;19963;-34
2022/09/19 11:16:08;;;;;;;;;;;;;;;15.42;79.04;102087.50;5116537;28;20317;-35
2022/09/19 11:18:46;;;;;;;;;;;;;;;15.45;78.62;102086.19;5033310;28;19913;-34
2022/09/19 11:21:25;;;;;;;;;;;;;;;15.46;78.13;102091.41;5033292;28;19917;-34
2022/09/19 11:24:02;;;;;;;;;;;;;;;15.50;79.99;102093.69;5033164;28;19913;-34
2022/09/19 11:26:36;;;;;;;;;;;;;;;15.49;78.13;102087.41;5033437;28;19993;-34
2022/09/19 11:29:14;;;;;;;;;;;;;;;15.47;79.34;102097.72;5033279;28;20010;-34
2022/09/19 11:31:42;;;;;;;;;;;;;;;15.42;76.14;102095.69;5032964;28;19952;-34
2022/09/19 11:34:11;;;;;;;;;;;;;;;15.49;77.95;102092.03;5033108;28;19913;-35
2022/09/19 11:36:48;;;;;;;;;;;;;;;15.54;78.19;102097.59;5032822;28;19913;-34
2022/09/19 11:39:26;;;;;;;;;;;;;;;15.65;77.42;102086.75;5033423;28;19913;-34
2022/09/19 11:42:05;;;;;;;;;;;;;;;15.63;74.24;102094.34;5032843;28;19919;-34
2022/09/19 11:44:33;;;;;;;;;;;;;;;15.50;75.02;102093.69;5033560;28;20388;-34
2022/09/19 11:47:13;;;;;;;;;;;;;;;15.37;73.64;102100.16;5033132;28;20004;-34
2022/09/19 11:49:51;;;;;;;;;;;;;;;15.30;75.06;102088.53;5032637;28;19920;-34
2022/09/19 11:52:45;;;;;;;;;;;;;;;15.28;75.25;102088.78;5066040;28;19915;-34
2022/09/19 11:55:19;;;;;;;;;;;;;;;15.65;76.28;102080.47;5115687;28;19912;-35
2022/09/19 11:57:44;;;;;;;;;;;;;;;16.08;76.96;102079.31;5115943;28;19916;-35
2022/09/19 12:00:20;;;;;;;;;;;;;;;16.47;77.41;102078.56;5114998;28;20336;-35
2022/09/19 12:02:58;;;;;;;;;;;;;;;16.89;73.55;102075.63;5116118;28;19954;-35
2022/09/19 12:05:35;;;;;;;;;;;;;;;17.23;69.75;102062.06;5115979;28;20006;-35
2022/09/19 12:08:19;;;;;;;;;;;;;;;17.54;71.25;102063.41;5115167;28;19998;-35
2022/09/19 12:10:55;;;;;;;;;;;;;;;17.56;68.44;102065.88;5114671;28;20295;-35
2022/09/19 12:13:26;;;;;;;;;;;;;;;17.24;66.77;102066.44;5114991;28;19916;-35
2022/09/19 12:15:55;;;;;;;;;;;;;;;16.97;67.65;102071.66;5114983;28;19912;-35
2022/09/19 12:18:39;;;;;;;;;;;;;;;16.73;70.47;102066.28;5115181;28;19912;-34
2022/09/19 12:21:06;;;;;;;;;;;;;;;16.53;68.95;102068.56;5114780;28;20002;-38
2022/09/19 12:26:24;;;;;;;;;;;;;;;16.66;69.29;102072.94;5114595;28;19985;-34
2022/09/19 12:28:54;;;;;;;;;;;;;;;16.65;69.93;102082.22;5115114;28;19912;-35
2022/09/19 12:31:21;;;;;;;;;;;;;;;16.58;71.34;102079.59;5115245;28;20006;-35
2022/09/19 12:33:53;;;;;;;;;;;;;;;16.52;70.75;102077.00;5114965;28;20278;-35
2022/09/19 12:36:20;;;;;;;;;;;;;;;16.63;71.92;102081.59;5114652;28;19911;-35
2022/09/19 12:39:05;;;;;;;;;;;;;;;16.64;73.15;102085.97;5114393;28;19950;-35
2022/09/19 12:41:49;;;;;;;;;;;;;;;16.63;73.38;102082.44;5115464;28;19911;-35
2022/09/19 12:44:24;;;;;;;;;;;;;;;16.74;71.98;102088.97;5114280;28;19915;-35
2022/09/19 12:46:55;;;;;;;;;;;;;;;16.75;70.61;102084.34;5115024;28;19911;-35
2022/09/19 12:49:29;;;;;;;;;;;;;;;16.72;71.15;102086.47;5114750;28;19918;-35
2022/09/19 12:51:55;;;;;;;;;;;;;;;16.47;72.70;102084.00;5114163;28;19915;-35
2022/09/19 12:54:25;;;;;;;;;;;;;;;16.28;73.96;102087.13;5114297;28;19912;-35
2022/09/19 12:57:00;;;;;;;;;;;;;;;16.11;74.56;102087.84;5114431;28;19919;-35
2022/09/19 12:59:27;;;;;;;;;;;;;;;15.93;74.15;102083.34;5114002;28;19911;-35
2022/09/19 13:01:56;;;;;;;;;;;;;;;15.93;74.44;102082.50;5114665;28;19915;-35
2022/09/19 13:04:31;;;;;;;;;;;;;;;16.18;75.08;102085.00;5114174;28;19915;-35
2022/09/19 13:07:10;;;;;;;;;;;;;;;16.47;73.72;102094.09;5115103;28;19912;-35